Hensall, Canada
Current Conditions -  °F | °C
As of 7:00 AM on Thursday 18 Dec 2014 (Local Time) from CYXU Reporting Station
Overcast Overcast  
Wind Chill: 21°   Ceiling: 2400
Heat Index: 28°   Visibility: 8mi
Dew Point: 25°   Wind: 7mph
Humidity: 86%   Direction: 300°WNW
Pressure: 30.11"   Gusts: NA
Location:  43.43°N, 81.5°W
Report Text: CYXU 181200Z 30006KT 8SM SCT012 OVC024 M02/M04 A3011 RMK SC4SC4 SLP211
Loading
Personal Weather Stations






























Interactive Weather Map New forecast layout! Learn more

10-Day Weather Forecast

Advertisements
Track Severe Weather on mobile